Time;durP1;ratioP1;P1;durP2;ratioP2;P2;SDS_P1;SDS_P2;PMS_P1;PMS_P2;Temp;Humidity;BMP_temperature;BMP_pressure;BME280_temperature;BME280_humidity;BME280_pressure;Samples;Min_cycle;Max_cycle;Signal;HPM_P1;HPM_P2
2022/06/02 00:00:41;;;;;;;4.00;1.40;;;20.90;45.20;;;-142.21;46.50;112049.66;5112513;28;20283;-72
2022/06/02 00:03:30;;;;;;;2.10;1.50;;;20.80;45.40;;;-142.21;46.63;112049.66;5114146;28;20187;-71
2022/06/02 00:06:12;;;;;;;2.23;1.60;;;20.80;45.50;;;-142.21;46.68;112049.66;5114003;28;20228;-71
2022/06/02 00:08:57;;;;;;;2.27;1.27;;;20.70;45.40;;;-142.21;47.66;112049.66;5112866;28;20215;-71
2022/06/02 00:11:52;;;;;;;1.50;1.37;;;20.70;45.40;;;-142.21;47.66;112049.66;5113685;28;20279;-71
2022/06/02 00:14:29;;;;;;;1.27;1.10;;;20.60;45.60;;;-142.21;47.62;112049.66;5097657;28;20188;-71
2022/06/02 00:17:07;;;;;;;2.53;1.50;;;20.50;45.20;;;-142.21;47.74;112049.66;5114194;28;20215;-72
2022/06/02 00:19:45;;;;;;;2.53;1.63;;;20.50;45.60;;;-142.21;47.90;112049.66;5113550;28;20195;-71
2022/06/02 00:22:23;;;;;;;1.57;1.30;;;20.40;45.80;;;-142.21;47.96;112049.66;5114077;28;20212;-71
2022/06/02 00:25:01;;;;;;;1.40;1.30;;;20.40;45.90;;;-142.21;48.10;112049.66;5109295;28;20238;-71
2022/06/02 00:27:42;;;;;;;1.97;1.63;;;20.50;46.00;;;-142.21;48.78;112049.66;5112966;28;20195;-71
2022/06/02 00:30:21;;;;;;;1.43;1.30;;;20.30;46.30;;;-142.21;49.64;112049.66;5113409;28;20533;-71
2022/06/02 00:33:02;;;;;;;1.97;1.63;;;20.30;46.50;;;-142.21;50.49;112049.66;5114096;28;20449;-71
2022/06/02 00:35:40;;;;;;;1.77;1.50;;;20.20;46.70;;;-142.21;51.28;112049.66;5112858;28;20501;-71
2022/06/02 00:38:19;;;;;;;2.33;1.77;;;20.20;47.10;;;-142.21;52.54;112049.66;5113108;28;20192;-71
2022/06/02 00:40:47;;;;;;;1.50;1.37;;;20.10;47.30;;;-142.21;52.33;112049.66;5112939;28;20223;-71
2022/06/02 00:43:48;;;;;;;2.70;2.17;;;20.10;47.20;;;-142.21;53.02;112049.66;5112918;28;20231;-71
2022/06/02 00:46:25;;;;;;;1.93;1.40;;;20.00;47.70;;;-142.21;54.28;112049.66;5097468;28;20643;-71
2022/06/02 00:49:10;;;;;;;1.40;1.30;;;20.00;47.70;;;-142.21;55.12;112049.66;5112491;28;20199;-71
2022/06/02 00:51:55;;;;;;;2.13;1.30;;;20.00;48.00;;;-142.21;55.79;112049.66;5110411;28;20445;-71
2022/06/02 00:57:31;;;;;;;1.60;1.50;;;19.90;48.30;;;-142.21;56.33;112049.66;5112770;28;20218;-71
2022/06/02 01:00:12;;;;;;;1.53;1.43;;;19.80;48.30;;;-142.21;57.25;112049.66;5110994;28;20438;-71
2022/06/02 01:02:52;;;;;;;2.03;1.57;;;19.70;48.30;;;-142.21;57.84;112049.66;5112196;28;20196;-71
2022/06/02 01:05:44;;;;;;;1.47;1.37;;;19.70;48.60;;;-142.21;58.63;112049.66;5112673;28;20520;-71
2022/06/02 01:08:33;;;;;;;2.40;1.60;;;19.70;48.60;;;-142.21;58.49;112049.66;5111727;28;20192;-72
2022/06/02 01:11:16;;;;;;;1.60;1.50;;;19.60;48.80;;;-142.21;58.37;112049.66;5102459;28;20231;-71
2022/06/02 01:14:02;;;;;;;1.70;1.60;;;19.60;48.80;;;-142.21;58.70;112049.66;5111885;28;20530;-71
2022/06/02 01:16:46;;;;;;;2.33;1.50;;;19.60;48.80;;;-142.21;59.69;112049.66;5111777;28;20552;-71
2022/06/02 01:20:03;;;;;;;1.80;1.70;;;19.60;49.20;;;-142.21;59.93;112049.66;5111705;28;20190;-71
2022/06/02 01:23:17;;;;;;;1.70;1.43;;;19.60;49.40;;;-142.21;59.62;112049.66;5111350;28;20465;-71
2022/06/02 01:26:35;;;;;;;1.47;1.37;;;19.50;49.40;;;-142.21;61.15;112049.66;5073734;28;20207;-71
2022/06/02 01:29:45;;;;;;;2.00;1.70;;;19.40;49.50;;;-142.21;61.20;112049.66;5106668;28;20231;-71
2022/06/02 01:32:17;;;;;;;1.90;1.70;;;19.30;49.40;;;-142.21;61.69;112049.66;5106442;28;20677;-71
2022/06/02 01:35:05;;;;;;;3.63;1.70;;;19.20;49.50;;;-142.21;61.66;112049.66;5111812;28;20426;-71
2022/06/02 01:37:43;;;;;;;1.83;1.63;;;19.20;49.60;;;-142.21;62.41;112049.66;5111424;28;20480;-71
2022/06/02 01:40:27;;;;;;;3.67;1.70;;;19.20;49.90;;;-142.21;63.90;112049.66;5111872;28;20222;-71
2022/06/02 01:43:04;;;;;;;3.00;1.63;;;19.10;50.20;;;-142.21;63.57;112049.66;5112530;28;20514;-71
2022/06/02 01:46:06;;;;;;;1.90;1.80;;;19.10;50.00;;;-142.21;63.57;112049.66;5111419;28;21001;-71
2022/06/02 01:48:47;;;;;;;2.60;1.83;;;19.10;50.40;;;-142.21;65.38;112049.66;5111346;28;21004;-71
2022/06/02 01:51:26;;;;;;;1.80;1.70;;;19.00;50.40;;;-142.21;65.90;112049.66;5112359;28;20215;-71
2022/06/02 01:54:07;;;;;;;3.27;1.93;;;18.90;50.40;;;-142.21;65.45;112049.66;5111600;28;20693;-71
2022/06/02 01:56:54;;;;;;;2.87;1.87;;;18.90;50.60;;;-142.21;64.84;112049.66;5111212;28;20538;-71
2022/06/02 01:59:55;;;;;;;2.47;1.70;;;18.80;50.60;;;-142.21;64.88;112049.66;5112379;28;20525;-71
2022/06/02 02:02:33;;;;;;;1.83;1.73;;;18.80;50.80;;;-142.21;65.35;112049.66;5108328;28;20464;-71
2022/06/02 02:05:23;;;;;;;2.07;1.73;;;18.80;50.70;;;-142.21;65.34;112049.66;5112187;28;20525;-71
2022/06/02 02:08:19;;;;;;;2.13;1.80;;;18.80;50.70;;;-142.21;67.39;112049.66;5111311;28;20535;-71
2022/06/02 02:11:03;;;;;;;1.73;1.63;;;18.80;51.00;;;-142.21;68.22;112049.66;5110233;28;20499;-71
2022/06/02 02:13:49;;;;;;;2.43;1.93;;;18.80;51.10;;;-142.21;68.33;112049.66;5091446;28;20449;-71
2022/06/02 02:16:29;;;;;;;2.50;2.27;;;18.70;51.20;;;-142.21;68.20;112049.66;5111965;28;20886;-71
2022/06/02 02:19:18;;;;;;;3.07;1.80;;;18.70;51.20;;;-142.21;69.01;112049.66;5111799;28;20469;-71
2022/06/02 02:22:02;;;;;;;2.93;1.80;;;18.70;51.60;;;-142.21;68.77;112049.66;5111185;28;20476;-71
2022/06/02 02:25:04;;;;;;;2.90;1.83;;;18.60;51.50;;;-142.21;68.03;112049.66;5110112;28;20495;-71
2022/06/02 02:30:28;;;;;;;1.70;1.60;;;18.60;51.10;;;-142.21;68.24;112049.66;5111420;28;20442;-71
2022/06/02 02:33:03;;;;;;;2.63;1.80;;;18.60;51.30;;;-142.21;69.09;112049.66;5095849;28;20513;-71
2022/06/02 02:35:45;;;;;;;2.43;1.80;;;18.50;51.40;;;-142.21;69.89;112049.66;5111470;28;20500;-71
2022/06/02 02:38:25;;;;;;;3.07;1.87;;;18.50;51.90;;;-142.21;70.23;112049.66;5092361;28;20957;-71
2022/06/02 02:41:00;;;;;;;1.97;1.53;;;18.40;52.00;;;-142.21;70.91;112049.66;5110815;28;20473;-71
2022/06/02 02:43:38;;;;;;;2.20;1.90;;;18.40;51.80;;;-142.21;71.12;112049.66;5103211;28;20472;-71
2022/06/02 02:46:15;;;;;;;1.83;1.73;;;18.40;52.00;;;-142.21;71.38;112049.66;5111731;28;20525;-71
2022/06/02 02:48:57;;;;;;;2.00;1.80;;;18.30;52.30;;;-142.21;72.67;112049.66;5110799;28;20532;-71
2022/06/02 02:51:43;;;;;;;2.10;1.90;;;18.30;52.60;;;-142.21;73.25;112049.66;5111744;28;20508;-71
2022/06/02 02:54:21;;;;;;;4.37;2.00;;;18.30;52.80;;;-142.21;74.05;112049.66;5099256;28;20438;-71
2022/06/02 02:57:01;;;;;;;2.10;1.80;;;18.20;52.60;;;-142.21;74.32;112049.66;5110961;28;20465;-71
2022/06/02 02:59:42;;;;;;;2.03;1.83;;;18.20;52.70;;;-142.21;75.01;112049.66;5111485;28;20714;-71
2022/06/02 03:02:29;;;;;;;1.90;1.80;;;18.20;52.90;;;-142.21;74.59;112049.66;5111514;28;20525;-71
2022/06/02 03:05:09;;;;;;;2.67;1.67;;;18.10;53.00;;;-142.21;74.82;112049.66;5111280;28;20469;-71
2022/06/02 03:07:37;;;;;;;3.40;1.70;;;18.10;52.80;;;-142.21;75.31;112049.66;5110321;28;20479;-71
2022/06/02 03:10:21;;;;;;;2.43;1.93;;;18.10;52.70;;;-142.21;75.49;112049.66;5111269;28;20485;-71
2022/06/02 03:13:09;;;;;;;1.70;1.60;;;18.00;53.30;;;-142.21;75.87;112049.66;5111896;28;20468;-71
2022/06/02 03:15:44;;;;;;;2.27;1.90;;;18.00;53.40;;;-142.21;76.26;112049.66;5114693;28;20434;-71
2022/06/02 03:18:39;;;;;;;2.20;2.10;;;18.00;53.20;;;-142.21;75.79;112049.66;5114404;28;20589;-71
2022/06/02 03:21:20;;;;;;;2.20;1.70;;;18.00;53.40;;;-142.21;76.47;112049.66;5115006;28;20855;-71
2022/06/02 03:24:23;;;;;;;2.80;1.83;;;17.90;53.50;;;-142.21;76.43;112049.66;5114275;28;20425;-71
2022/06/02 03:27:11;;;;;;;1.97;1.87;;;17.90;53.50;;;-142.21;77.27;112049.66;5088833;28;20450;-71
2022/06/02 03:29:57;;;;;;;2.30;2.10;;;17.80;53.60;;;-142.21;77.63;112049.66;5113661;28;20449;-71
2022/06/02 03:32:44;;;;;;;1.97;1.87;;;17.80;53.80;;;-142.21;78.19;112049.66;5114779;28;20441;-71
2022/06/02 03:35:27;;;;;;;3.90;2.30;;;17.70;54.00;;;-142.21;78.20;112049.66;5114898;28;20477;-71
2022/06/02 03:38:12;;;;;;;2.93;2.10;;;17.70;53.90;;;-142.21;78.68;112049.66;5109838;28;20471;-71
2022/06/02 03:41:17;;;;;;;3.27;2.53;;;17.70;54.10;;;-142.21;79.17;112049.66;5114596;28;20522;-71
2022/06/02 03:43:55;;;;;;;1.83;1.73;;;17.60;54.20;;;-142.21;79.66;112049.66;5106193;28;20445;-71
2022/06/02 03:46:53;;;;;;;2.80;2.00;;;17.60;54.50;;;-142.21;80.12;112049.66;5114351;28;20440;-71
2022/06/02 03:49:51;;;;;;;2.30;2.00;;;17.50;54.70;;;-142.21;80.91;112049.66;5114614;28;20503;-72
2022/06/02 03:52:46;;;;;;;2.10;1.90;;;17.50;55.20;;;-142.21;80.73;112049.66;5114308;28;20471;-72
2022/06/02 03:55:34;;;;;;;4.87;2.20;;;17.40;55.10;;;-142.21;80.97;112049.66;5114531;28;20536;-72
2022/06/02 03:58:36;;;;;;;1.90;1.80;;;17.40;55.10;;;-142.21;81.07;112049.66;5104183;28;20473;-72
2022/06/02 04:01:09;;;;;;;2.37;2.17;;;17.40;55.20;;;-142.21;81.39;112049.66;5100255;28;20437;-72
2022/06/02 04:04:04;;;;;;;2.73;1.83;;;17.40;55.00;;;-142.21;81.59;112049.66;5112908;28;20532;-72
2022/06/02 04:06:53;;;;;;;3.47;2.40;;;17.50;55.30;;;-142.21;81.83;112049.66;5104320;28;20441;-72
2022/06/02 04:09:36;;;;;;;4.70;2.20;;;17.40;55.20;;;-142.21;82.28;112049.66;5114050;28;20477;-72
2022/06/02 04:16:04;;;;;;;2.37;2.17;;;17.50;55.80;;;-142.21;82.92;112049.66;5085764;28;20549;-71
2022/06/02 04:18:50;;;;;;;3.37;2.20;;;17.40;56.50;;;-142.21;82.97;112049.66;5112287;28;20469;-72
2022/06/02 04:21:36;;;;;;;4.07;2.50;;;17.40;55.70;;;-142.21;83.90;112049.66;5113528;28;20528;-72
2022/06/02 04:24:22;;;;;;;2.97;2.67;;;17.50;55.90;;;-142.21;84.52;112049.66;5113624;28;20793;-72
2022/06/02 04:27:06;;;;;;;3.57;3.20;;;17.50;56.10;;;-142.21;84.44;112049.66;5104964;28;20438;-71
2022/06/02 04:30:02;;;;;;;3.07;2.10;;;17.50;56.90;;;-142.21;83.92;112049.66;5100841;28;20466;-71
2022/06/02 04:32:41;;;;;;;2.60;2.23;;;17.50;56.30;;;-142.21;83.28;112049.66;5094739;28;20492;-72
2022/06/02 04:35:36;;;;;;;2.77;2.40;;;17.50;55.80;;;-142.21;84.25;112049.66;5113418;28;20528;-71
2022/06/02 04:38:21;;;;;;;3.87;2.27;;;17.50;56.40;;;-142.21;84.37;112049.66;5093240;28;20489;-71
2022/06/02 04:41:05;;;;;;;3.60;2.40;;;17.50;56.40;;;-142.21;84.25;112049.66;5093031;28;20841;-71
2022/06/02 04:43:47;;;;;;;3.90;2.70;;;17.60;56.10;;;-142.21;84.88;112049.66;5104646;28;21001;-71
2022/06/02 04:46:37;;;;;;;8.30;3.07;;;17.60;56.30;;;-142.21;85.17;112049.66;5113341;28;20445;-71
2022/06/02 04:49:15;;;;;;;4.23;2.50;;;17.60;56.40;;;-142.21;85.90;112049.66;5112934;28;20469;-71
2022/06/02 04:51:58;;;;;;;7.47;3.77;;;17.70;56.50;;;-142.21;87.07;112049.66;5112946;28;20473;-72
2022/06/02 04:54:42;;;;;;;5.73;3.37;;;17.70;56.90;;;-142.21;88.41;112049.66;5113493;28;20438;-71
2022/06/02 04:57:24;;;;;;;12.13;4.73;;;17.70;57.30;;;-142.21;88.91;112049.66;5113471;28;20469;-71
2022/06/02 05:00:04;;;;;;;6.43;3.97;;;17.80;57.60;;;-142.21;89.22;112049.66;5112480;28;20437;-72
2022/06/02 05:02:49;;;;;;;4.27;3.37;;;17.80;57.80;;;-142.21;87.47;112049.66;5113066;28;20447;-71
2022/06/02 05:05:26;;;;;;;2.90;2.60;;;17.80;57.10;;;-142.21;86.41;112049.66;5109860;28;20438;-71
2022/06/02 05:08:36;;;;;;;4.20;2.17;;;17.80;56.70;;;-142.21;85.11;112049.66;5103889;28;20529;-72
2022/06/02 05:11:18;;;;;;;3.40;2.40;;;17.80;56.60;;;-142.21;85.47;112049.66;5110806;28;20479;-71
2022/06/02 05:13:59;;;;;;;3.63;2.50;;;17.90;56.50;;;-142.21;85.74;112049.66;5074300;28;20442;-71
2022/06/02 05:16:39;;;;;;;5.13;2.70;;;18.00;56.60;;;-142.21;85.76;112049.66;5108373;28;20429;-71
2022/06/02 05:20:11;;;;;;;3.20;2.60;;;18.00;56.70;;;-142.21;86.00;112049.66;5105812;28;20429;-71
2022/06/02 05:23:25;;;;;;;2.77;2.57;;;18.10;57.30;;;-142.21;85.59;112049.66;5023120;28;20512;-71
2022/06/02 05:26:19;;;;;;;4.27;2.67;;;18.20;56.60;;;-142.21;85.79;112049.66;5045099;28;20442;-72
2022/06/02 05:29:24;;;;;;;4.27;2.90;;;18.20;56.50;;;-142.21;85.52;112049.66;5110939;28;20454;-72
2022/06/02 05:32:39;;;;;;;2.63;2.43;;;18.30;56.50;;;-142.21;86.14;112049.66;5106916;28;20439;-72
2022/06/02 05:36:12;;;;;;;2.87;2.57;;;18.40;57.10;;;-142.21;85.73;112049.66;5101856;28;20452;-72
2022/06/02 05:39:26;;;;;;;2.87;2.60;;;18.50;56.90;;;-142.21;84.18;112049.66;5048025;28;20494;-72
2022/06/02 05:42:18;;;;;;;3.37;2.80;;;18.50;56.30;;;-142.21;83.00;112049.66;5036678;28;20468;-72
2022/06/02 05:45:25;;;;;;;3.93;2.50;;;18.50;55.80;;;-142.21;84.23;112049.66;5107544;28;20946;-72
2022/06/02 05:48:15;;;;;;;3.03;2.73;;;18.60;56.00;;;-142.21;84.92;112049.66;5107057;28;20469;-72
2022/06/02 05:50:52;;;;;;;4.10;2.33;;;18.60;56.40;;;-142.21;85.16;112049.66;5111786;28;20434;-72
2022/06/02 05:53:38;;;;;;;4.10;2.47;;;18.70;56.40;;;-142.21;83.99;112049.66;5112283;28;20429;-72
2022/06/02 05:56:20;;;;;;;2.97;2.60;;;18.70;56.10;;;-142.21;82.28;112049.66;5111726;28;20491;-72
2022/06/02 05:59:29;;;;;;;3.57;2.90;;;18.80;55.70;;;-142.21;82.28;112049.66;5111464;28;20469;-72
2022/06/02 06:02:33;;;;;;;3.33;2.60;;;18.90;55.70;;;-142.21;81.32;112049.66;5111078;28;20224;-72
2022/06/02 06:05:17;;;;;;;3.13;2.50;;;19.00;55.30;;;-142.21;81.23;112049.66;5111294;28;20542;-72
2022/06/02 06:08:25;;;;;;;4.83;2.93;;;19.10;55.40;;;-142.21;82.22;112049.66;5111495;28;20426;-72
2022/06/02 06:11:11;;;;;;;2.20;2.00;;;19.10;55.60;;;-142.21;80.15;112049.66;5110312;28;20590;-72
2022/06/02 06:14:22;;;;;;;3.40;2.03;;;19.20;55.10;;;-142.21;78.88;112049.66;5110338;28;20460;-72
2022/06/02 06:17:05;;;;;;;3.23;2.33;;;19.40;54.60;;;-142.21;78.57;112049.66;5110234;28;20480;-72
2022/06/02 06:19:58;;;;;;;4.70;2.17;;;19.50;54.50;;;-142.21;79.43;112049.66;5111721;28;20987;-72
2022/06/02 06:23:05;;;;;;;3.53;1.80;;;19.60;54.80;;;-142.21;77.20;112049.66;5109859;28;20440;-72
2022/06/02 06:25:55;;;;;;;2.30;1.70;;;19.70;54.20;;;-142.21;76.19;112049.66;5110004;28;20242;-72
2022/06/02 06:28:28;;;;;;;2.73;1.77;;;19.80;53.90;;;-142.21;75.27;112049.66;5112290;28;20188;-72
2022/06/02 06:31:09;;;;;;;2.80;2.33;;;19.90;53.40;;;-142.21;75.37;112049.66;5111293;28;20194;-72
2022/06/02 06:33:57;;;;;;;2.77;1.80;;;19.90;53.40;;;-142.21;73.29;112049.66;5111998;28;20573;-72
2022/06/02 06:36:51;;;;;;;1.70;1.60;;;20.00;53.10;;;-142.21;74.54;112049.66;5112148;28;20232;-72
2022/06/02 06:39:34;;;;;;;2.87;1.60;;;20.00;53.30;;;-142.21;71.45;112049.66;5111562;28;20540;-72
2022/06/02 06:42:24;;;;;;;2.53;1.70;;;20.10;52.60;;;-142.21;70.58;112049.66;5111075;28;20192;-72
2022/06/02 06:45:11;;;;;;;1.50;1.40;;;20.20;52.30;;;-142.21;70.50;112049.66;5111119;28;20275;-72
2022/06/02 06:47:45;;;;;;;1.87;1.73;;;20.20;52.10;;;-142.21;68.22;112049.66;5114099;28;20209;-72
2022/06/02 06:50:21;;;;;;;1.37;1.27;;;20.40;52.10;;;-142.21;65.32;112049.66;5115843;28;20315;-72
2022/06/02 06:53:30;;;;;;;1.40;1.30;;;20.40;51.10;;;-142.21;67.76;112049.66;5115237;28;20286;-72
2022/06/02 06:56:12;;;;;;;1.60;1.47;;;20.50;51.50;;;-142.21;64.57;112049.66;5051736;28;20205;-72
2022/06/02 06:59:13;;;;;;;1.90;1.53;;;20.60;51.00;;;-142.21;63.10;112049.66;5112284;28;20277;-72
2022/06/02 07:01:54;;;;;;;1.60;1.50;;;20.70;50.10;;;-142.21;59.22;112049.66;5115741;28;20613;-72
2022/06/02 07:04:53;;;;;;;1.30;1.20;;;20.80;49.50;;;-142.21;60.39;112049.66;5115614;28;20226;-72
2022/06/02 07:07:36;;;;;;;1.60;1.50;;;20.90;49.80;;;-142.21;58.47;112049.66;5079479;28;20278;-72
2022/06/02 07:10:13;;;;;;;1.30;1.17;;;21.00;49.20;;;-142.21;55.41;112049.66;5114521;28;20239;-72
2022/06/02 07:13:02;;;;;;;1.43;1.33;;;21.00;48.50;;;-142.21;54.67;112049.66;5115355;28;20183;-72
2022/06/02 07:15:47;;;;;;;1.40;1.30;;;21.10;48.20;;;-142.21;56.21;112049.66;5115352;28;20257;-72
2022/06/02 07:18:31;;;;;;;2.83;1.67;;;21.20;48.60;;;-142.21;54.95;112049.66;5115159;28;20303;-72
2022/06/02 07:21:09;;;;;;;1.43;1.33;;;21.30;48.80;;;-142.21;54.85;112049.66;5114859;28;20192;-71
2022/06/02 07:23:56;;;;;;;1.73;1.53;;;21.40;48.00;;;-142.21;51.83;112049.66;5115015;28;20223;-72
2022/06/02 07:26:51;;;;;;;1.90;1.30;;;21.50;47.20;;;-142.21;52.17;112049.66;5115391;28;20199;-72
2022/06/02 07:29:52;;;;;;;1.70;1.60;;;21.60;47.20;;;-142.21;49.01;112049.66;5115052;28;20580;-72
2022/06/02 07:32:55;;;;;;;2.57;1.30;;;21.60;45.90;;;-142.21;50.15;112049.66;5114915;28;20694;-72
2022/06/02 07:36:14;;;;;;;1.67;1.13;;;21.70;46.40;;;-142.21;49.12;112049.66;5114984;28;20239;-72
2022/06/02 07:39:31;;;;;;;1.47;1.20;;;21.80;46.30;;;-142.21;48.47;112049.66;5114772;28;20272;-72
2022/06/02 07:42:21;;;;;;;2.27;1.40;;;21.80;45.30;;;-142.21;49.33;112049.66;5114502;28;20371;-72
2022/06/02 07:45:22;;;;;;;2.83;1.73;;;21.90;46.40;;;-142.21;47.10;112049.66;5113911;28;20236;-72
2022/06/02 07:48:22;;;;;;;1.10;1.00;;;22.00;45.30;;;-142.21;47.37;112049.66;5112448;27;20199;-72
2022/06/02 07:51:06;;;;;;;2.00;1.67;;;22.10;45.20;;;-142.21;47.76;112049.66;5114162;28;20717;-72
2022/06/02 07:54:00;;;;;;;4.07;2.40;;;22.20;45.30;;;-142.21;48.93;112049.66;5114442;28;20192;-72
2022/06/02 07:56:37;;;;;;;4.50;1.77;;;22.20;46.10;;;-142.21;48.85;112049.66;5114927;28;20188;-72
2022/06/02 07:59:20;;;;;;;1.40;1.30;;;22.40;45.80;;;-142.21;46.37;112049.66;5113003;28;20239;-71
2022/06/02 08:02:18;;;;;;;1.40;1.13;;;22.40;44.60;;;-142.21;48.40;112049.66;5078475;28;20200;-71
2022/06/02 08:05:01;;;;;;;3.87;1.83;;;22.50;45.50;;;-142.21;46.70;112049.66;5114783;28;20230;-71
2022/06/02 08:07:39;;;;;;;2.40;1.50;;;22.60;44.80;;;-142.21;45.81;112049.66;5114356;28;20261;-70
2022/06/02 08:10:26;;;;;;;7.53;1.70;;;22.80;44.70;;;-142.21;45.77;112049.66;5113753;28;20278;-72
2022/06/02 08:13:04;;;;;;;1.43;1.13;;;22.80;44.20;;;-142.21;42.51;112049.66;5113613;28;20184;-72
2022/06/02 08:15:49;;;;;;;1.70;1.10;;;22.90;42.70;;;-142.21;42.80;112049.66;5114481;28;20271;-71
2022/06/02 08:18:49;;;;;;;1.27;1.10;;;22.90;42.80;;;-142.21;40.00;112049.66;5114280;28;20274;-71
2022/06/02 08:21:28;;;;;;;2.37;0.87;;;23.00;41.40;;;-142.21;38.89;112049.66;5113892;28;20248;-72
2022/06/02 08:24:20;;;;;;;3.87;1.37;;;23.00;40.30;;;-142.21;38.98;112049.66;5113190;28;20203;-71
2022/06/02 08:27:12;;;;;;;2.00;1.20;;;23.00;40.10;;;-142.21;39.19;112049.66;5093414;28;20192;-72
2022/06/02 08:29:55;;;;;;;2.03;1.50;;;23.00;40.40;;;-142.21;39.96;112049.66;5093942;28;20185;-72
2022/06/02 08:32:46;;;;;;;1.17;0.97;;;23.10;41.10;;;-142.21;40.37;112049.66;5094001;28;20193;-72
2022/06/02 08:35:26;;;;;;;3.87;1.33;;;23.20;41.40;;;-142.21;41.42;112049.66;5092861;28;20711;-71
2022/06/02 08:38:18;;;;;;;1.43;1.30;;;23.30;41.90;;;-142.21;42.17;112049.66;5105403;28;20308;-71
2022/06/02 08:41:49;;;;;;;1.03;0.93;;;23.50;42.50;;;-142.21;41.33;112049.66;5113903;28;20205;-70
2022/06/02 08:45:08;;;;;;;1.73;0.90;;;23.60;41.90;;;-142.21;40.71;112049.66;5029817;28;20301;-71
2022/06/02 08:48:19;;;;;;;1.60;1.50;;;23.70;41.50;;;-142.21;37.28;112049.66;5087875;28;20237;-71
2022/06/02 08:51:47;;;;;;;1.33;0.90;;;23.80;39.10;;;-142.21;38.36;112049.66;5113465;28;20192;-72
2022/06/02 08:55:06;;;;;;;3.00;0.83;;;23.80;39.40;;;-142.21;38.17;112049.66;5092454;28;20235;-71
2022/06/02 08:58:36;;;;;;;1.63;1.27;;;23.90;40.40;;;-142.21;38.14;112049.66;5092883;28;20192;-71
2022/06/02 09:01:20;;;;;;;1.47;0.90;;;23.90;39.70;;;-142.21;38.62;112049.66;5068756;28;20294;-72
2022/06/02 09:04:37;;;;;;;1.93;1.10;;;24.00;40.20;;;-142.21;39.27;112049.66;5092862;28;20224;-72
2022/06/02 09:07:58;;;;;;;1.23;1.10;;;24.20;40.50;;;-142.21;39.83;112049.66;5086531;28;20316;-72
2022/06/02 09:11:02;;;;;;;2.50;1.13;;;24.40;40.70;;;-142.21;38.15;112049.66;5111310;28;20300;-72
2022/06/02 09:14:22;;;;;;;2.93;1.20;;;24.50;38.80;;;-142.21;36.74;112049.66;5113420;28;20595;-72
2022/06/02 09:17:23;;;;;;;2.53;0.90;;;24.60;37.90;;;-142.21;37.23;112049.66;5050167;28;20250;-72
2022/06/02 09:20:14;;;;;;;0.80;0.80;;;24.60;39.80;;;-142.21;35.14;112049.66;5050064;28;20261;-72
2022/06/02 09:23:23;;;;;;;0.97;0.97;;;24.70;36.80;;;-142.21;37.18;112049.66;5111202;28;20206;-72
2022/06/02 09:26:12;;;;;;;2.33;0.90;;;24.70;38.70;;;-142.21;37.58;112049.66;5111364;28;20613;-71
2022/06/02 09:29:09;;;;;;;3.10;1.20;;;24.80;38.80;;;-142.21;34.01;112049.66;5112817;28;20240;-71
2022/06/02 09:32:16;;;;;;;1.20;1.10;;;24.80;35.80;;;-142.21;36.64;112049.66;5112681;28;20187;-71
2022/06/02 09:35:20;;;;;;;2.03;1.20;;;24.80;38.10;;;-142.21;37.83;112049.66;5112752;28;20545;-72
2022/06/02 09:38:46;;;;;;;0.83;0.83;;;24.90;39.50;;;-142.21;37.05;112049.66;5092413;28;20214;-72
2022/06/02 09:42:02;;;;;;;1.30;1.20;;;25.00;38.30;;;-142.21;34.68;112049.66;5091771;28;20212;-72
2022/06/02 09:44:47;;;;;;;0.93;0.80;;;25.20;38.30;;;-142.21;36.35;112049.66;5092474;28;20284;-72
2022/06/02 09:47:57;;;;;;;1.33;0.93;;;25.20;38.10;;;-142.21;37.12;112049.66;5091589;28;20633;-72
2022/06/02 09:51:03;;;;;;;1.40;1.30;;;25.40;39.80;;;-142.21;34.83;112049.66;5098131;28;20202;-72
2022/06/02 09:54:08;;;;;;;0.90;0.90;;;25.50;36.50;;;-142.21;35.20;112049.66;5109654;28;20290;-72
2022/06/02 10:00:22;;;;;;;1.20;0.90;;;25.60;37.20;;;-142.21;34.93;112049.66;5111724;28;20195;-72
2022/06/02 10:03:13;;;;;;;0.83;0.83;;;25.80;37.30;;;-142.21;35.25;112049.66;5112290;28;20191;-71
2022/06/02 10:06:13;;;;;;;1.10;1.00;;;25.90;36.90;;;-142.21;32.99;112049.66;5112428;28;20282;-73
2022/06/02 10:09:03;;;;;;;0.70;0.70;;;25.80;35.40;;;-142.21;34.87;112049.66;5111856;28;20219;-70
2022/06/02 10:11:47;;;;;;;0.80;0.80;;;25.80;36.70;;;-142.21;34.37;112049.66;5071950;28;20235;-72
2022/06/02 10:14:57;;;;;;;1.07;1.00;;;25.80;36.10;;;-142.21;35.04;112049.66;5070658;28;20288;-72
2022/06/02 10:17:57;;;;;;;0.93;0.93;;;26.00;36.50;;;-142.21;35.29;112049.66;5071453;28;20638;-72
2022/06/02 10:21:00;;;;;;;1.60;0.90;;;26.10;36.70;;;-142.21;34.99;112049.66;5071852;28;20193;-72
2022/06/02 10:24:21;;;;;;;2.23;1.17;;;26.20;36.80;;;-142.21;35.00;112049.66;5035811;28;20204;-72
2022/06/02 10:27:31;;;;;;;1.23;0.67;;;26.30;36.40;;;-142.21;35.68;112049.66;5051428;28;20240;-72
2022/06/02 10:30:46;;;;;;;1.47;0.70;;;26.40;37.10;;;-142.21;34.23;112049.66;5048061;28;20208;-71
2022/06/02 10:34:11;;;;;;;1.37;1.10;;;26.50;35.90;;;-142.21;34.25;112049.66;5049580;28;20256;-71
2022/06/02 10:37:21;;;;;;;1.10;1.00;;;26.60;35.50;;;-142.21;34.98;112049.66;4989840;28;20274;-72
2022/06/02 10:40:15;;;;;;;2.53;1.23;;;26.70;36.50;;;-142.21;32.58;112049.66;4983233;28;20317;-72
2022/06/02 10:43:35;;;;;;;2.50;1.00;;;26.70;33.90;;;-142.21;34.23;112049.66;5051816;28;20611;-72
2022/06/02 10:47:05;;;;;;;0.97;0.93;;;26.70;35.60;;;-142.21;33.74;112049.66;5039807;28;20670;-72
2022/06/02 10:49:44;;;;;;;1.43;1.13;;;26.80;35.40;;;-142.21;34.63;112049.66;5051177;28;20186;-71
2022/06/02 10:53:23;;;;;;;0.90;0.90;;;26.90;36.60;;;-142.21;34.03;112049.66;5048179;28;20208;-72
2022/06/02 10:57:01;;;;;;;1.23;0.87;;;27.00;35.90;;;-142.21;33.77;112049.66;5025504;28;20242;-71
2022/06/02 11:00:13;;;;;;;2.83;1.20;;;27.20;35.10;;;-142.21;33.81;112049.66;5069329;28;20305;-72
2022/06/02 11:03:32;;;;;;;3.37;0.97;;;27.30;35.50;;;-142.21;34.55;112049.66;5071027;28;20222;-71
2022/06/02 11:07:12;;;;;;;1.13;1.00;;;27.50;35.60;;;-142.21;33.68;112049.66;5070054;28;20202;-72
2022/06/02 11:10:29;;;;;;;3.20;1.20;;;27.50;35.20;;;-142.21;32.42;112049.66;5085377;28;20235;-71
2022/06/02 11:14:00;;;;;;;0.83;0.83;;;27.60;33.50;;;-142.21;33.38;112049.66;5111604;28;20275;-72
2022/06/02 11:17:34;;;;;;;1.40;1.30;;;27.70;35.30;;;-142.21;32.88;112049.66;5097517;28;20242;-71
2022/06/02 11:20:54;;;;;;;0.87;0.87;;;27.70;34.20;;;-142.21;34.01;112049.66;5110639;28;20745;-71
2022/06/02 11:23:52;;;;;;;1.37;1.00;;;27.90;35.50;;;-142.21;33.58;112049.66;5108303;28;20243;-72
2022/06/02 11:27:27;;;;;;;2.70;1.10;;;28.00;35.30;;;-142.21;33.73;112049.66;5110817;28;20718;-71
2022/06/02 11:30:41;;;;;;;0.90;0.90;;;28.20;35.20;;;-142.21;33.44;112049.66;5111710;28;20681;-71
2022/06/02 11:33:55;;;;;;;1.83;1.10;;;28.40;35.00;;;-142.21;34.12;112049.66;5110827;28;20206;-72
2022/06/02 11:37:11;;;;;;;2.67;1.13;;;28.50;35.50;;;-142.21;32.72;112049.66;5103339;28;20206;-72
2022/06/02 11:40:46;;;;;;;1.53;1.30;;;28.70;34.30;;;-142.21;32.61;112049.66;5114818;28;20321;-71
2022/06/02 11:43:24;;;;;;;1.00;0.90;;;28.80;34.10;;;-142.21;32.39;112049.66;5051535;28;20203;-70
2022/06/02 11:46:33;;;;;;;1.77;1.10;;;28.80;34.30;;;-142.21;32.76;112049.66;5051793;28;20208;-72
2022/06/02 11:49:51;;;;;;;1.70;0.83;;;28.80;34.00;;;-142.21;32.71;112049.66;5105341;27;20206;-72
2022/06/02 11:52:52;;;;;;;2.53;1.10;;;28.80;34.10;;;-142.21;32.83;112049.66;5114186;28;21166;-72
2022/06/02 11:55:31;;;;;;;1.30;0.90;;;28.80;34.10;;;-142.21;31.93;112049.66;5112034;28;20727;-70
2022/06/02 11:59:04;;;;;;;2.87;0.90;;;28.80;33.60;;;-142.21;32.31;112049.66;5114747;28;20286;-73
2022/06/02 12:02:05;;;;;;;1.77;1.37;;;28.90;33.40;;;-142.21;32.97;112049.66;5087931;28;20258;-70